sensor_id;sensor_type;location;lat;lon;timestamp;temperature;humidity
76104;HTU21D;64831;44.870;37.336;2023-03-03T00:00:33;0.64;58.61
76104;HTU21D;64831;44.870;37.336;2023-03-03T00:02:59;0.62;58.70
76104;HTU21D;64831;44.870;37.336;2023-03-03T00:05:27;0.57;58.54
76104;HTU21D;64831;44.870;37.336;2023-03-03T00:07:52;0.55;58.75
76104;HTU21D;64831;44.870;37.336;2023-03-03T00:10:18;0.52;59.03
76104;HTU21D;64831;44.870;37.336;2023-03-03T00:12:48;0.49;59.35
76104;HTU21D;64831;44.870;37.336;2023-03-03T00:15:15;0.46;59.96
76104;HTU21D;64831;44.870;37.336;2023-03-03T00:17:41;0.42;59.67
76104;HTU21D;64831;44.870;37.336;2023-03-03T00:22:51;0.33;60.19
76104;HTU21D;64831;44.870;37.336;2023-03-03T00:27:54;0.28;60.12
76104;HTU21D;64831;44.870;37.336;2023-03-03T00:30:24;0.29;60.06
76104;HTU21D;64831;44.870;37.336;2023-03-03T00:32:50;0.32;61.03
76104;HTU21D;64831;44.870;37.336;2023-03-03T00:35:20;0.38;61.15
76104;HTU21D;64831;44.870;37.336;2023-03-03T00:37:47;0.44;60.22
76104;HTU21D;64831;44.870;37.336;2023-03-03T00:40:21;0.48;60.81
76104;HTU21D;64831;44.870;37.336;2023-03-03T00:42:49;0.50;60.54
76104;HTU21D;64831;44.870;37.336;2023-03-03T00:45:24;0.50;60.60
76104;HTU21D;64831;44.870;37.336;2023-03-03T00:47:51;0.50;60.45
76104;HTU21D;64831;44.870;37.336;2023-03-03T00:52:59;0.50;60.17
76104;HTU21D;64831;44.870;37.336;2023-03-03T00:55:26;0.49;60.06
76104;HTU21D;64831;44.870;37.336;2023-03-03T00:57:52;0.52;60.35
76104;HTU21D;64831;44.870;37.336;2023-03-03T01:00:22;0.53;60.30
76104;HTU21D;64831;44.870;37.336;2023-03-03T01:02:48;0.53;60.38
76104;HTU21D;64831;44.870;37.336;2023-03-03T01:05:15;0.52;60.79
76104;HTU21D;64831;44.870;37.336;2023-03-03T01:07:41;0.50;61.11
76104;HTU21D;64831;44.870;37.336;2023-03-03T01:10:07;0.49;61.31
76104;HTU21D;64831;44.870;37.336;2023-03-03T01:12:33;0.48;61.67
76104;HTU21D;64831;44.870;37.336;2023-03-03T01:14:59;0.46;61.25
76104;HTU21D;64831;44.870;37.336;2023-03-03T01:17:25;0.45;61.17
76104;HTU21D;64831;44.870;37.336;2023-03-03T01:19:50;0.40;61.76
76104;HTU21D;64831;44.870;37.336;2023-03-03T01:22:16;0.43;61.58
76104;HTU21D;64831;44.870;37.336;2023-03-03T01:24:42;0.45;61.95
76104;HTU21D;64831;44.870;37.336;2023-03-03T01:27:09;0.48;61.79
76104;HTU21D;64831;44.870;37.336;2023-03-03T01:29:35;0.51;61.88
76104;HTU21D;64831;44.870;37.336;2023-03-03T01:32:01;0.55;62.28
76104;HTU21D;64831;44.870;37.336;2023-03-03T01:34:27;0.57;62.12
76104;HTU21D;64831;44.870;37.336;2023-03-03T01:36:52;0.57;61.79
76104;HTU21D;64831;44.870;37.336;2023-03-03T01:39:18;0.57;61.25
76104;HTU21D;64831;44.870;37.336;2023-03-03T01:41:44;0.59;62.08
76104;HTU21D;64831;44.870;37.336;2023-03-03T01:44:18;0.59;61.15
76104;HTU21D;64831;44.870;37.336;2023-03-03T01:46:45;0.57;61.41
76104;HTU21D;64831;44.870;37.336;2023-03-03T01:49:14;0.59;62.14
76104;HTU21D;64831;44.870;37.336;2023-03-03T01:51:45;0.58;61.00
76104;HTU21D;64831;44.870;37.336;2023-03-03T01:54:17;0.61;61.88
76104;HTU21D;64831;44.870;37.336;2023-03-03T01:56:44;0.60;61.66
76104;HTU21D;64831;44.870;37.336;2023-03-03T01:59:12;0.63;62.61
76104;HTU21D;64831;44.870;37.336;2023-03-03T02:01:38;0.65;62.44
76104;HTU21D;64831;44.870;37.336;2023-03-03T02:04:05;0.67;61.88
76104;HTU21D;64831;44.870;37.336;2023-03-03T02:06:34;0.69;61.68
76104;HTU21D;64831;44.870;37.336;2023-03-03T02:09:12;0.74;62.05
76104;HTU21D;64831;44.870;37.336;2023-03-03T02:11:41;0.79;62.05
76104;HTU21D;64831;44.870;37.336;2023-03-03T02:14:07;0.83;62.03
76104;HTU21D;64831;44.870;37.336;2023-03-03T02:16:34;0.86;62.60
76104;HTU21D;64831;44.870;37.336;2023-03-03T02:19:00;0.86;62.24
76104;HTU21D;64831;44.870;37.336;2023-03-03T02:21:26;0.86;62.25
76104;HTU21D;64831;44.870;37.336;2023-03-03T02:26:26;0.86;62.18
76104;HTU21D;64831;44.870;37.336;2023-03-03T02:28:57;0.88;62.70
76104;HTU21D;64831;44.870;37.336;2023-03-03T02:31:24;0.89;61.64
76104;HTU21D;64831;44.870;37.336;2023-03-03T02:33:52;0.91;62.24
76104;HTU21D;64831;44.870;37.336;2023-03-03T02:36:20;0.91;62.57
76104;HTU21D;64831;44.870;37.336;2023-03-03T02:43:43;0.93;61.96
76104;HTU21D;64831;44.870;37.336;2023-03-03T02:46:11;0.91;61.32
76104;HTU21D;64831;44.870;37.336;2023-03-03T02:48:37;0.93;61.34
76104;HTU21D;64831;44.870;37.336;2023-03-03T02:51:03;0.92;61.69
76104;HTU21D;64831;44.870;37.336;2023-03-03T02:53:28;0.92;61.28
76104;HTU21D;64831;44.870;37.336;2023-03-03T02:55:54;0.93;61.15
76104;HTU21D;64831;44.870;37.336;2023-03-03T02:58:20;0.94;61.52
76104;HTU21D;64831;44.870;37.336;2023-03-03T03:00:46;0.92;61.46
76104;HTU21D;64831;44.870;37.336;2023-03-03T03:03:15;0.88;61.16
76104;HTU21D;64831;44.870;37.336;2023-03-03T03:05:41;0.81;61.67
76104;HTU21D;64831;44.870;37.336;2023-03-03T03:08:06;0.73;61.90
76104;HTU21D;64831;44.870;37.336;2023-03-03T03:10:32;0.67;62.27
76104;HTU21D;64831;44.870;37.336;2023-03-03T03:12:58;0.63;61.96
76104;HTU21D;64831;44.870;37.336;2023-03-03T03:15:24;0.62;62.18
76104;HTU21D;64831;44.870;37.336;2023-03-03T03:17:49;0.62;62.69
76104;HTU21D;64831;44.870;37.336;2023-03-03T03:20:16;0.62;62.21
76104;HTU21D;64831;44.870;37.336;2023-03-03T03:22:43;0.62;62.72
76104;HTU21D;64831;44.870;37.336;2023-03-03T03:25:09;0.64;62.85
76104;HTU21D;64831;44.870;37.336;2023-03-03T03:27:36;0.65;62.61
76104;HTU21D;64831;44.870;37.336;2023-03-03T03:30:02;0.68;62.37
76104;HTU21D;64831;44.870;37.336;2023-03-03T03:32:29;0.68;62.60
76104;HTU21D;64831;44.870;37.336;2023-03-03T03:34:55;0.72;62.51
76104;HTU21D;64831;44.870;37.336;2023-03-03T03:37:21;0.72;62.01
76104;HTU21D;64831;44.870;37.336;2023-03-03T03:39:46;0.74;62.56
76104;HTU21D;64831;44.870;37.336;2023-03-03T03:42:12;0.77;62.60
76104;HTU21D;64831;44.870;37.336;2023-03-03T03:44:39;0.79;62.77
76104;HTU21D;64831;44.870;37.336;2023-03-03T03:47:05;0.80;62.57
76104;HTU21D;64831;44.870;37.336;2023-03-03T03:49:32;0.81;61.71
76104;HTU21D;64831;44.870;37.336;2023-03-03T03:51:58;0.84;62.23
76104;HTU21D;64831;44.870;37.336;2023-03-03T03:54:27;0.86;61.55
76104;HTU21D;64831;44.870;37.336;2023-03-03T03:56:53;0.88;62.50
76104;HTU21D;64831;44.870;37.336;2023-03-03T03:59:20;0.88;61.57
76104;HTU21D;64831;44.870;37.336;2023-03-03T04:01:46;0.90;61.54
76104;HTU21D;64831;44.870;37.336;2023-03-03T04:04:12;0.92;62.46
76104;HTU21D;64831;44.870;37.336;2023-03-03T04:06:38;0.94;62.63
76104;HTU21D;64831;44.870;37.336;2023-03-03T04:09:05;0.96;62.76
76104;HTU21D;64831;44.870;37.336;2023-03-03T04:11:30;0.97;62.57
76104;HTU21D;64831;44.870;37.336;2023-03-03T04:13:56;0.99;62.71
76104;HTU21D;64831;44.870;37.336;2023-03-03T04:16:22;1.04;62.92
76104;HTU21D;64831;44.870;37.336;2023-03-03T04:18:49;1.07;62.85
76104;HTU21D;64831;44.870;37.336;2023-03-03T04:21:16;1.13;62.69
76104;HTU21D;64831;44.870;37.336;2023-03-03T04:23:43;1.19;62.95
76104;HTU21D;64831;44.870;37.336;2023-03-03T04:26:09;1.24;62.70
76104;HTU21D;64831;44.870;37.336;2023-03-03T04:28:35;1.29;62.49
76104;HTU21D;64831;44.870;37.336;2023-03-03T04:31:01;1.36;62.66
76104;HTU21D;64831;44.870;37.336;2023-03-03T04:33:29;1.42;62.52
76104;HTU21D;64831;44.870;37.336;2023-03-03T04:35:55;1.51;62.37
76104;HTU21D;64831;44.870;37.336;2023-03-03T04:38:21;1.60;62.45
76104;HTU21D;64831;44.870;37.336;2023-03-03T04:40:47;1.70;62.62
76104;HTU21D;64831;44.870;37.336;2023-03-03T04:43:15;1.80;62.52
76104;HTU21D;64831;44.870;37.336;2023-03-03T04:45:40;1.90;62.38
76104;HTU21D;64831;44.870;37.336;2023-03-03T04:48:07;2.03;62.37
76104;HTU21D;64831;44.870;37.336;2023-03-03T04:50:34;2.25;63.07
76104;HTU21D;64831;44.870;37.336;2023-03-03T04:53:00;2.71;63.76
76104;HTU21D;64831;44.870;37.336;2023-03-03T04:55:27;3.50;64.19
76104;HTU21D;64831;44.870;37.336;2023-03-03T04:57:53;4.54;62.45
76104;HTU21D;64831;44.870;37.336;2023-03-03T05:00:18;5.43;60.30
76104;HTU21D;64831;44.870;37.336;2023-03-03T05:02:46;6.20;58.53
76104;HTU21D;64831;44.870;37.336;2023-03-03T05:05:12;6.91;56.71
76104;HTU21D;64831;44.870;37.336;2023-03-03T05:07:38;7.68;54.16
76104;HTU21D;64831;44.870;37.336;2023-03-03T05:10:04;8.24;52.31
76104;HTU21D;64831;44.870;37.336;2023-03-03T05:12:30;8.74;51.17
76104;HTU21D;64831;44.870;37.336;2023-03-03T05:14:55;9.29;49.43
76104;HTU21D;64831;44.870;37.336;2023-03-03T05:17:21;9.64;48.39
76104;HTU21D;64831;44.870;37.336;2023-03-03T05:19:47;9.96;46.53
76104;HTU21D;64831;44.870;37.336;2023-03-03T05:22:12;10.15;46.62
76104;HTU21D;64831;44.870;37.336;2023-03-03T05:24:38;10.34;46.09
76104;HTU21D;64831;44.870;37.336;2023-03-03T05:27:04;10.33;44.99
76104;HTU21D;64831;44.870;37.336;2023-03-03T05:29:30;10.26;45.19
76104;HTU21D;64831;44.870;37.336;2023-03-03T05:31:59;10.37;44.54
76104;HTU21D;64831;44.870;37.336;2023-03-03T05:34:24;10.51;44.43
76104;HTU21D;64831;44.870;37.336;2023-03-03T05:36:50;10.67;44.26
76104;HTU21D;64831;44.870;37.336;2023-03-03T05:39:16;10.98;43.85
76104;HTU21D;64831;44.870;37.336;2023-03-03T05:41:41;11.26;43.48
76104;HTU21D;64831;44.870;37.336;2023-03-03T05:44:07;11.43;42.90
76104;HTU21D;64831;44.870;37.336;2023-03-03T05:46:33;11.47;42.47
76104;HTU21D;64831;44.870;37.336;2023-03-03T05:48:59;11.46;42.54
76104;HTU21D;64831;44.870;37.336;2023-03-03T05:51:25;11.59;42.39
76104;HTU21D;64831;44.870;37.336;2023-03-03T05:53:51;11.78;42.42
76104;HTU21D;64831;44.870;37.336;2023-03-03T05:56:16;12.11;42.23
76104;HTU21D;64831;44.870;37.336;2023-03-03T05:58:42;12.47;41.93
76104;HTU21D;64831;44.870;37.336;2023-03-03T11:21:39;11.15;51.51
76104;HTU21D;64831;44.870;37.336;2023-03-03T11:29:55;10.72;53.12
76104;HTU21D;64831;44.870;37.336;2023-03-03T11:37:23;10.30;54.62
76104;HTU21D;64831;44.870;37.336;2023-03-03T11:39:48;10.50;54.06
76104;HTU21D;64831;44.870;37.336;2023-03-03T11:44:43;10.82;53.51
76104;HTU21D;64831;44.870;37.336;2023-03-03T11:49:38;10.87;52.96
76104;HTU21D;64831;44.870;37.336;2023-03-03T11:54:44;10.85;52.91
76104;HTU21D;64831;44.870;37.336;2023-03-03T11:57:18;10.74;52.93
76104;HTU21D;64831;44.870;37.336;2023-03-03T12:05:37;10.63;53.62
76104;HTU21D;64831;44.870;37.336;2023-03-03T12:13:48;10.73;52.91
76104;HTU21D;64831;44.870;37.336;2023-03-03T12:17:04;10.62;52.92
76104;HTU21D;64831;44.870;37.336;2023-03-03T12:24:20;10.43;52.81
76104;HTU21D;64831;44.870;37.336;2023-03-03T12:31:47;9.98;54.09
76104;HTU21D;64831;44.870;37.336;2023-03-03T12:34:18;9.95;54.29
76104;HTU21D;64831;44.870;37.336;2023-03-03T12:42:13;10.33;53.73
76104;HTU21D;64831;44.870;37.336;2023-03-03T12:50:10;10.23;52.89
76104;HTU21D;64831;44.870;37.336;2023-03-03T12:57:30;10.36;52.59
76104;HTU21D;64831;44.870;37.336;2023-03-03T13:10:07;9.99;52.93
76104;HTU21D;64831;44.870;37.336;2023-03-03T13:18:12;9.83;53.39
76104;HTU21D;64831;44.870;37.336;2023-03-03T13:20:30;9.68;53.69
76104;HTU21D;64831;44.870;37.336;2023-03-03T13:23:03;9.70;53.78
76104;HTU21D;64831;44.870;37.336;2023-03-03T13:28:10;9.74;53.62
76104;HTU21D;64831;44.870;37.336;2023-03-03T13:30:39;9.68;53.86
76104;HTU21D;64831;44.870;37.336;2023-03-03T13:33:09;9.62;54.04
76104;HTU21D;64831;44.870;37.336;2023-03-03T13:38:29;9.46;54.68
76104;HTU21D;64831;44.870;37.336;2023-03-03T13:40:56;9.37;54.94
76104;HTU21D;64831;44.870;37.336;2023-03-03T13:43:42;9.34;54.93
76104;HTU21D;64831;44.870;37.336;2023-03-03T13:54:27;8.92;56.13
76104;HTU21D;64831;44.870;37.336;2023-03-03T14:04:53;8.55;57.26
76104;HTU21D;64831;44.870;37.336;2023-03-03T14:07:42;8.53;57.22
76104;HTU21D;64831;44.870;37.336;2023-03-03T14:10:12;8.49;57.26
76104;HTU21D;64831;44.870;37.336;2023-03-03T14:12:44;8.41;57.51
76104;HTU21D;64831;44.870;37.336;2023-03-03T14:20:17;8.33;56.88
76104;HTU21D;64831;44.870;37.336;2023-03-03T14:22:45;8.33;57.16
76104;HTU21D;64831;44.870;37.336;2023-03-03T14:25:13;8.36;56.90
76104;HTU21D;64831;44.870;37.336;2023-03-03T14:31:08;8.43;56.51
76104;HTU21D;64831;44.870;37.336;2023-03-03T14:33:01;8.43;56.15
76104;HTU21D;64831;44.870;37.336;2023-03-03T14:35:37;8.44;56.10
76104;HTU21D;64831;44.870;37.336;2023-03-03T14:40:33;8.32;56.10
76104;HTU21D;64831;44.870;37.336;2023-03-03T14:43:00;8.29;56.13
76104;HTU21D;64831;44.870;37.336;2023-03-03T14:45:30;8.27;55.98
76104;HTU21D;64831;44.870;37.336;2023-03-03T14:47:57;8.28;55.87
76104;HTU21D;64831;44.870;37.336;2023-03-03T14:50:29;8.27;55.54
76104;HTU21D;64831;44.870;37.336;2023-03-03T14:53:11;8.26;57.49
76104;HTU21D;64831;44.870;37.336;2023-03-03T14:55:39;8.43;56.68
76104;HTU21D;64831;44.870;37.336;2023-03-03T14:58:39;8.55;55.87
76104;HTU21D;64831;44.870;37.336;2023-03-03T15:03:43;8.66;55.11
76104;HTU21D;64831;44.870;37.336;2023-03-03T15:06:12;8.71;55.71
76104;HTU21D;64831;44.870;37.336;2023-03-03T15:08:52;8.75;55.16
76104;HTU21D;64831;44.870;37.336;2023-03-03T15:13:43;8.79;55.60
76104;HTU21D;64831;44.870;37.336;2023-03-03T15:16:10;8.78;55.56
76104;HTU21D;64831;44.870;37.336;2023-03-03T15:21:25;8.70;55.73
76104;HTU21D;64831;44.870;37.336;2023-03-03T15:24:06;8.58;56.11
76104;HTU21D;64831;44.870;37.336;2023-03-03T15:26:51;8.49;56.79
76104;HTU21D;64831;44.870;37.336;2023-03-03T15:29:24;8.47;57.06
76104;HTU21D;64831;44.870;37.336;2023-03-03T15:34:57;8.49;57.14
76104;HTU21D;64831;44.870;37.336;2023-03-03T15:42:36;8.33;56.46
76104;HTU21D;64831;44.870;37.336;2023-03-03T15:50:27;8.00;56.41
76104;HTU21D;64831;44.870;37.336;2023-03-03T15:58:27;7.73;57.51
76104;HTU21D;64831;44.870;37.336;2023-03-03T16:04:24;7.62;57.62
76104;HTU21D;64831;44.870;37.336;2023-03-03T16:24:39;6.72;56.38
76104;HTU21D;64831;44.870;37.336;2023-03-03T16:27:09;6.59;56.32
76104;HTU21D;64831;44.870;37.336;2023-03-03T16:29:53;6.43;56.52
76104;HTU21D;64831;44.870;37.336;2023-03-03T16:32:28;6.30;56.68
76104;HTU21D;64831;44.870;37.336;2023-03-03T16:34:57;6.15;56.86
76104;HTU21D;64831;44.870;37.336;2023-03-03T16:39:54;5.96;56.98
76104;HTU21D;64831;44.870;37.336;2023-03-03T16:45:00;5.77;57.22
76104;HTU21D;64831;44.870;37.336;2023-03-03T16:52:45;5.57;57.41
76104;HTU21D;64831;44.870;37.336;2023-03-03T16:55:24;5.51;57.12
76104;HTU21D;64831;44.870;37.336;2023-03-03T16:57:56;5.41;57.53
76104;HTU21D;64831;44.870;37.336;2023-03-03T17:00:27;5.31;57.83
76104;HTU21D;64831;44.870;37.336;2023-03-03T17:03:15;5.24;57.92
76104;HTU21D;64831;44.870;37.336;2023-03-03T17:05:52;5.17;57.98
76104;HTU21D;64831;44.870;37.336;2023-03-03T17:10:57;5.11;58.04
76104;HTU21D;64831;44.870;37.336;2023-03-03T17:21:58;4.94;58.41
76104;HTU21D;64831;44.870;37.336;2023-03-03T17:24:36;4.89;58.57
76104;HTU21D;64831;44.870;37.336;2023-03-03T17:32:08;4.79;59.04
76104;HTU21D;64831;44.870;37.336;2023-03-03T17:37:46;4.75;59.48
76104;HTU21D;64831;44.870;37.336;2023-03-03T17:45:13;4.71;59.87
76104;HTU21D;64831;44.870;37.336;2023-03-03T17:50:27;4.75;59.77
76104;HTU21D;64831;44.870;37.336;2023-03-03T17:58:39;4.87;59.18
76104;HTU21D;64831;44.870;37.336;2023-03-03T18:01:08;4.91;58.91
76104;HTU21D;64831;44.870;37.336;2023-03-03T18:14:03;5.12;58.15
76104;HTU21D;64831;44.870;37.336;2023-03-03T18:16:43;5.20;58.03
76104;HTU21D;64831;44.870;37.336;2023-03-03T18:21:52;5.31;57.86
76104;HTU21D;64831;44.870;37.336;2023-03-03T18:24:32;5.36;57.71
76104;HTU21D;64831;44.870;37.336;2023-03-03T18:27:13;5.42;57.68
76104;HTU21D;64831;44.870;37.336;2023-03-03T18:33:17;5.52;57.78
76104;HTU21D;64831;44.870;37.336;2023-03-03T18:35:25;5.56;57.65
76104;HTU21D;64831;44.870;37.336;2023-03-03T18:37:52;5.60;57.62
76104;HTU21D;64831;44.870;37.336;2023-03-03T18:40:27;5.64;57.28
76104;HTU21D;64831;44.870;37.336;2023-03-03T18:42:53;5.69;57.17
76104;HTU21D;64831;44.870;37.336;2023-03-03T18:50:29;5.84;56.90
76104;HTU21D;64831;44.870;37.336;2023-03-03T18:53:15;5.87;56.82
76104;HTU21D;64831;44.870;37.336;2023-03-03T18:56:02;5.93;56.74
76104;HTU21D;64831;44.870;37.336;2023-03-03T18:58:37;5.97;56.61
76104;HTU21D;64831;44.870;37.336;2023-03-03T19:06:00;6.04;55.87
76104;HTU21D;64831;44.870;37.336;2023-03-03T19:08:28;6.08;55.60
76104;HTU21D;64831;44.870;37.336;2023-03-03T19:15:53;6.16;54.71
76104;HTU21D;64831;44.870;37.336;2023-03-03T19:18:23;6.16;54.24
76104;HTU21D;64831;44.870;37.336;2023-03-03T19:20:54;6.17;54.31
76104;HTU21D;64831;44.870;37.336;2023-03-03T19:23:28;6.21;54.24
76104;HTU21D;64831;44.870;37.336;2023-03-03T19:28:44;6.22;53.78
76104;HTU21D;64831;44.870;37.336;2023-03-03T19:31:26;6.21;53.67
76104;HTU21D;64831;44.870;37.336;2023-03-03T19:37:09;6.26;53.45
76104;HTU21D;64831;44.870;37.336;2023-03-03T19:42:15;6.28;53.05
76104;HTU21D;64831;44.870;37.336;2023-03-03T19:45:06;6.28;53.08
76104;HTU21D;64831;44.870;37.336;2023-03-03T19:52:48;6.27;52.68
76104;HTU21D;64831;44.870;37.336;2023-03-03T20:02:49;6.20;52.53
76104;HTU21D;64831;44.870;37.336;2023-03-03T20:05:22;6.15;52.60
76104;HTU21D;64831;44.870;37.336;2023-03-03T20:10:23;6.06;52.46
76104;HTU21D;64831;44.870;37.336;2023-03-03T20:15:58;5.98;52.71
76104;HTU21D;64831;44.870;37.336;2023-03-03T20:21:10;5.91;52.95
76104;HTU21D;64831;44.870;37.336;2023-03-03T20:26:34;5.89;53.09
76104;HTU21D;64831;44.870;37.336;2023-03-03T20:31:48;5.86;52.85
76104;HTU21D;64831;44.870;37.336;2023-03-03T20:53:15;5.77;53.33
76104;HTU21D;64831;44.870;37.336;2023-03-03T20:56:27;5.77;53.46
76104;HTU21D;64831;44.870;37.336;2023-03-03T21:01:06;5.72;53.63
76104;HTU21D;64831;44.870;37.336;2023-03-03T21:03:33;5.70;53.73
76104;HTU21D;64831;44.870;37.336;2023-03-03T21:06:03;5.68;53.93
76104;HTU21D;64831;44.870;37.336;2023-03-03T21:13:45;5.63;54.17
76104;HTU21D;64831;44.870;37.336;2023-03-03T21:16:32;5.61;54.31
76104;HTU21D;64831;44.870;37.336;2023-03-03T21:19:08;5.57;54.54
76104;HTU21D;64831;44.870;37.336;2023-03-03T21:21:36;5.54;54.73
76104;HTU21D;64831;44.870;37.336;2023-03-03T21:24:02;5.55;54.49
76104;HTU21D;64831;44.870;37.336;2023-03-03T21:29:31;5.57;54.78
76104;HTU21D;64831;44.870;37.336;2023-03-03T21:31:58;5.56;54.89
76104;HTU21D;64831;44.870;37.336;2023-03-03T21:36:49;5.55;55.06
76104;HTU21D;64831;44.870;37.336;2023-03-03T21:39:19;5.56;54.99
76104;HTU21D;64831;44.870;37.336;2023-03-03T21:41:49;5.56;54.95
76104;HTU21D;64831;44.870;37.336;2023-03-03T21:44:31;5.56;55.29
76104;HTU21D;64831;44.870;37.336;2023-03-03T21:46:57;5.54;55.16
76104;HTU21D;64831;44.870;37.336;2023-03-03T21:49:23;5.54;55.24
76104;HTU21D;64831;44.870;37.336;2023-03-03T21:51:49;5.54;55.44
76104;HTU21D;64831;44.870;37.336;2023-03-03T21:54:14;5.55;55.26
76104;HTU21D;64831;44.870;37.336;2023-03-03T21:56:40;5.55;55.65
76104;HTU21D;64831;44.870;37.336;2023-03-03T21:59:06;5.56;55.58
76104;HTU21D;64831;44.870;37.336;2023-03-03T22:01:32;5.56;55.86
76104;HTU21D;64831;44.870;37.336;2023-03-03T22:03:58;5.55;55.63
76104;HTU21D;64831;44.870;37.336;2023-03-03T22:06:24;5.56;55.68
76104;HTU21D;64831;44.870;37.336;2023-03-03T22:08:50;5.59;55.76
76104;HTU21D;64831;44.870;37.336;2023-03-03T22:11:15;5.57;55.72
76104;HTU21D;64831;44.870;37.336;2023-03-03T22:13:41;5.61;55.71
76104;HTU21D;64831;44.870;37.336;2023-03-03T22:16:07;5.59;55.78
76104;HTU21D;64831;44.870;37.336;2023-03-03T22:18:32;5.60;56.02
76104;HTU21D;64831;44.870;37.336;2023-03-03T22:20:58;5.60;56.10
76104;HTU21D;64831;44.870;37.336;2023-03-03T22:23:24;5.59;56.25
76104;HTU21D;64831;44.870;37.336;2023-03-03T22:25:50;5.57;55.97
76104;HTU21D;64831;44.870;37.336;2023-03-03T22:28:15;5.56;56.23
76104;HTU21D;64831;44.870;37.336;2023-03-03T22:30:41;5.60;56.07
76104;HTU21D;64831;44.870;37.336;2023-03-03T22:33:07;5.60;56.42
76104;HTU21D;64831;44.870;37.336;2023-03-03T22:35:32;5.61;56.40
76104;HTU21D;64831;44.870;37.336;2023-03-03T22:37:58;5.63;56.45
76104;HTU21D;64831;44.870;37.336;2023-03-03T22:40:24;5.66;56.90
76104;HTU21D;64831;44.870;37.336;2023-03-03T22:42:49;5.68;56.52
76104;HTU21D;64831;44.870;37.336;2023-03-03T22:45:15;5.71;56.28
76104;HTU21D;64831;44.870;37.336;2023-03-03T22:47:41;5.75;56.55
76104;HTU21D;64831;44.870;37.336;2023-03-03T22:50:07;5.81;56.37
76104;HTU21D;64831;44.870;37.336;2023-03-03T22:52:33;5.87;57.58
76104;HTU21D;64831;44.870;37.336;2023-03-03T22:54:58;5.92;56.47
76104;HTU21D;64831;44.870;37.336;2023-03-03T22:57:24;5.95;56.36
76104;HTU21D;64831;44.870;37.336;2023-03-03T22:59:50;5.99;56.47
76104;HTU21D;64831;44.870;37.336;2023-03-03T23:02:16;6.02;57.30
76104;HTU21D;64831;44.870;37.336;2023-03-03T23:04:41;6.05;58.15
76104;HTU21D;64831;44.870;37.336;2023-03-03T23:07:07;6.07;58.16
76104;HTU21D;64831;44.870;37.336;2023-03-03T23:09:33;6.11;58.05
76104;HTU21D;64831;44.870;37.336;2023-03-03T23:11:58;6.12;58.04
76104;HTU21D;64831;44.870;37.336;2023-03-03T23:14:24;6.15;58.68
76104;HTU21D;64831;44.870;37.336;2023-03-03T23:16:50;6.20;58.54
76104;HTU21D;64831;44.870;37.336;2023-03-03T23:19:16;6.22;58.82
76104;HTU21D;64831;44.870;37.336;2023-03-03T23:21:41;6.23;58.62
76104;HTU21D;64831;44.870;37.336;2023-03-03T23:24:07;6.24;58.58
76104;HTU21D;64831;44.870;37.336;2023-03-03T23:26:35;6.27;59.10
76104;HTU21D;64831;44.870;37.336;2023-03-03T23:29:01;6.29;59.03
76104;HTU21D;64831;44.870;37.336;2023-03-03T23:31:27;6.33;59.32
76104;HTU21D;64831;44.870;37.336;2023-03-03T23:33:52;6.34;60.31
76104;HTU21D;64831;44.870;37.336;2023-03-03T23:36:18;6.35;60.35
76104;HTU21D;64831;44.870;37.336;2023-03-03T23:38:44;6.35;60.25
76104;HTU21D;64831;44.870;37.336;2023-03-03T23:41:10;6.36;60.37
76104;HTU21D;64831;44.870;37.336;2023-03-03T23:43:35;6.36;60.35
76104;HTU21D;64831;44.870;37.336;2023-03-03T23:46:01;6.36;59.93
76104;HTU21D;64831;44.870;37.336;2023-03-03T23:48:27;6.34;60.02
76104;HTU21D;64831;44.870;37.336;2023-03-03T23:50:52;6.33;59.73
76104;HTU21D;64831;44.870;37.336;2023-03-03T23:53:18;6.31;59.80
76104;HTU21D;64831;44.870;37.336;2023-03-03T23:55:44;6.31;59.35
76104;HTU21D;64831;44.870;37.336;2023-03-03T23:58:10;6.30;59.54
